Time;durP1;ratioP1;P1;durP2;ratioP2;P2;SDS_P1;SDS_P2;PMS_P1;PMS_P2;Temp;Humidity;BMP_temperature;BMP_pressure;BME280_temperature;BME280_humidity;BME280_pressure;Samples;Min_cycle;Max_cycle;Signal;HPM_P1;HPM_P2
2023/12/02 00:02:23;;;;;;;54.35;28.98;;;-0.40;99.90;;;;;;5026969;28;20091;-83
2023/12/02 00:04:49;;;;;;;46.42;27.70;;;-0.50;99.90;;;;;;5027510;28;20473;-84
2023/12/02 00:07:14;;;;;;;44.05;27.02;;;-0.40;99.90;;;;;;5008619;28;20037;-84
2023/12/02 00:09:40;;;;;;;45.65;27.55;;;-0.30;99.90;;;;;;5011155;28;20056;-84
2023/12/02 00:12:06;;;;;;;51.08;28.20;;;-0.40;99.90;;;;;;5024540;28;20541;-85
2023/12/02 00:14:32;;;;;;;46.53;29.92;;;-0.30;99.90;;;;;;5006657;28;20052;-84
2023/12/02 00:16:57;;;;;;;45.28;27.75;;;-0.40;99.90;;;;;;5042253;28;20053;-84
2023/12/02 00:19:23;;;;;;;46.50;28.23;;;-0.40;99.90;;;;;;5001453;28;20115;-84
2023/12/02 00:21:50;;;;;;;44.60;27.38;;;-0.50;99.90;;;;;;5009239;28;20040;-84
2023/12/02 00:24:16;;;;;;;45.78;28.85;;;-0.30;99.90;;;;;;5009883;28;20043;-85
2023/12/02 00:26:42;;;;;;;48.80;27.60;;;-0.20;99.90;;;;;;5013145;28;20486;-85
2023/12/02 00:29:07;;;;;;;44.33;26.85;;;-0.30;99.90;;;;;;5042524;28;20032;-84
2023/12/02 00:31:33;;;;;;;47.75;28.75;;;-0.40;99.90;;;;;;5011631;28;20445;-85
2023/12/02 00:33:59;;;;;;;48.10;28.55;;;-0.30;99.90;;;;;;5009867;28;20045;-84
2023/12/02 00:36:24;;;;;;;45.67;28.75;;;-0.40;99.90;;;;;;5006671;28;20478;-84
2023/12/02 00:38:51;;;;;;;48.00;28.02;;;-0.30;99.90;;;;;;5022756;28;20037;-85
2023/12/02 00:41:16;;;;;;;49.33;28.98;;;-0.50;99.90;;;;;;5008494;28;20368;-84
2023/12/02 00:43:42;;;;;;;47.83;28.80;;;-0.40;99.90;;;;;;5042828;28;20041;-84
2023/12/02 00:46:08;;;;;;;47.70;29.48;;;-0.50;99.90;;;;;;5007865;28;20047;-85
2023/12/02 00:48:34;;;;;;;43.15;27.38;;;-0.30;99.90;;;;;;5026105;28;20403;-85
2023/12/02 00:50:59;;;;;;;43.83;28.10;;;-0.30;99.90;;;;;;5004861;28;20535;-85
2023/12/02 00:53:25;;;;;;;49.42;29.58;;;-0.40;99.90;;;;;;5006726;28;20038;-85
2023/12/02 00:55:53;;;;;;;47.25;27.83;;;-0.30;99.90;;;;;;5004453;28;20103;-85
2023/12/02 00:58:19;;;;;;;43.88;27.55;;;-0.30;99.90;;;;;;5026996;28;20296;-85
2023/12/02 01:00:44;;;;;;;47.58;27.52;;;-0.50;99.90;;;;;;5010986;28;20461;-84
2023/12/02 01:03:10;;;;;;;44.80;27.90;;;-0.40;99.90;;;;;;5027751;28;20083;-85
2023/12/02 01:05:36;;;;;;;46.28;29.08;;;-0.20;99.90;;;;;;5006710;28;20068;-85
2023/12/02 01:08:01;;;;;;;45.85;27.65;;;-0.40;99.90;;;;;;5009860;28;20044;-85
2023/12/02 01:10:27;;;;;;;47.00;28.58;;;-0.40;99.90;;;;;;5059709;28;20135;-84
2023/12/02 01:12:53;;;;;;;47.13;28.58;;;-0.30;99.90;;;;;;5004203;28;20476;-84
2023/12/02 01:15:19;;;;;;;44.30;27.58;;;-0.50;99.90;;;;;;5009707;28;20479;-85
2023/12/02 01:17:45;;;;;;;47.75;29.27;;;-0.40;99.90;;;;;;5010387;28;20037;-85
2023/12/02 01:20:10;;;;;;;50.78;29.73;;;-0.30;99.90;;;;;;5004242;28;20494;-85
2023/12/02 01:22:36;;;;;;;50.25;29.92;;;-0.20;99.90;;;;;;5027599;28;20181;-85
2023/12/02 01:25:02;;;;;;;47.10;28.92;;;-0.40;99.90;;;;;;5013003;28;20041;-84
2023/12/02 01:27:28;;;;;;;46.75;29.15;;;-0.20;99.90;;;;;;5008603;28;20447;-85
2023/12/02 01:29:53;;;;;;;48.38;29.45;;;-0.20;99.90;;;;;;5010876;28;20069;-85
2023/12/02 01:32:19;;;;;;;50.15;29.83;;;-0.40;99.90;;;;;;5003671;28;20047;-85
2023/12/02 01:34:46;;;;;;;47.70;29.15;;;-0.40;99.90;;;;;;5010694;28;20048;-84
2023/12/02 01:37:12;;;;;;;49.75;30.52;;;-0.30;99.90;;;;;;5010730;28;20032;-85
2023/12/02 01:39:38;;;;;;;48.88;30.00;;;-0.40;99.90;;;;;;5022466;28;20132;-85
2023/12/02 01:42:04;;;;;;;51.80;31.88;;;-0.20;99.90;;;;;;5023876;28;20132;-85
2023/12/02 01:44:31;;;;;;;49.65;29.60;;;-0.20;99.90;;;;;;5024479;28;20049;-84
2023/12/02 01:46:56;;;;;;;48.17;28.83;;;-0.40;99.90;;;;;;5007916;28;20096;-85
2023/12/02 01:49:24;;;;;;;47.97;29.23;;;-0.40;99.90;;;;;;5019736;28;20105;-85
2023/12/02 01:51:52;;;;;;;49.53;29.60;;;-0.20;99.90;;;;;;5008898;28;20037;-85
2023/12/02 01:54:19;;;;;;;47.45;29.60;;;-0.10;99.90;;;;;;5006288;28;20045;-85
2023/12/02 01:56:46;;;;;;;46.83;28.75;;;-0.40;99.90;;;;;;5041355;28;20117;-85
2023/12/02 01:59:13;;;;;;;48.60;29.50;;;-0.20;99.90;;;;;;5007636;28;20029;-85
2023/12/02 02:01:39;;;;;;;48.80;30.33;;;-0.40;99.90;;;;;;5005514;28;20361;-85
2023/12/02 02:04:05;;;;;;;51.30;30.17;;;-0.40;99.90;;;;;;5007019;28;20291;-85
2023/12/02 02:06:31;;;;;;;48.03;29.75;;;-0.30;99.90;;;;;;5025564;28;20049;-85
2023/12/02 02:08:56;;;;;;;47.25;28.77;;;-0.20;99.90;;;;;;5024229;28;20068;-85
2023/12/02 02:11:22;;;;;;;48.03;29.98;;;-0.30;99.90;;;;;;5006972;28;20459;-85
2023/12/02 02:13:48;;;;;;;50.83;29.70;;;-0.20;99.90;;;;;;5007503;28;20036;-85
2023/12/02 02:16:14;;;;;;;49.03;30.08;;;-0.40;99.90;;;;;;5009350;28;20044;-86
2023/12/02 02:18:39;;;;;;;54.33;31.23;;;-0.40;99.90;;;;;;5028658;28;20505;-85
2023/12/02 02:21:05;;;;;;;55.20;31.15;;;-0.20;99.90;;;;;;5036736;28;20189;-85
2023/12/02 02:23:31;;;;;;;49.53;29.65;;;-0.50;99.90;;;;;;5027351;28;20539;-86
2023/12/02 02:25:57;;;;;;;47.75;29.85;;;-0.20;99.90;;;;;;5021956;28;20068;-84
2023/12/02 02:28:30;;;;;;;50.35;30.17;;;-0.40;99.90;;;;;;5022816;28;20056;-85
2023/12/02 02:30:56;;;;;;;51.80;30.00;;;-0.50;99.90;;;;;;5003230;28;20032;-85
2023/12/02 02:33:21;;;;;;;51.13;30.50;;;-0.30;99.90;;;;;;5025181;28;20534;-86
2023/12/02 02:35:47;;;;;;;46.95;29.40;;;-0.50;99.90;;;;;;5025996;28;20507;-85
2023/12/02 02:38:14;;;;;;;48.50;29.60;;;-0.30;99.90;;;;;;5058218;28;20269;-85
2023/12/02 02:40:39;;;;;;;51.13;29.38;;;-0.50;99.90;;;;;;5023668;28;20123;-85
2023/12/02 02:43:05;;;;;;;49.45;29.65;;;-0.50;99.90;;;;;;5024737;28;20064;-86
2023/12/02 02:45:31;;;;;;;50.80;29.83;;;-0.60;99.90;;;;;;5022730;28;20121;-85
2023/12/02 02:47:57;;;;;;;52.10;30.10;;;-0.40;99.90;;;;;;5023888;28;20044;-86
2023/12/02 02:50:23;;;;;;;52.53;30.35;;;-0.60;99.90;;;;;;5023556;28;20041;-85
2023/12/02 02:52:49;;;;;;;53.63;31.10;;;-0.50;99.90;;;;;;5002817;28;20040;-85
2023/12/02 02:55:14;;;;;;;49.30;29.38;;;-0.50;99.90;;;;;;5025701;28;20048;-85
2023/12/02 02:57:40;;;;;;;50.03;29.65;;;-0.60;99.90;;;;;;5000233;28;20041;-85
2023/12/02 03:00:09;;;;;;;54.92;32.45;;;-0.50;99.90;;;;;;5023615;28;20080;-85
2023/12/02 03:02:39;;;;;;;53.70;30.90;;;-0.60;99.90;;;;;;5009067;28;20055;-85
2023/12/02 03:05:05;;;;;;;54.03;30.60;;;-0.50;99.90;;;;;;5005014;28;20068;-85
2023/12/02 03:07:32;;;;;;;54.45;30.92;;;-0.40;99.90;;;;;;5006111;28;20145;-85
2023/12/02 03:09:58;;;;;;;52.47;30.80;;;-0.50;99.90;;;;;;5010539;28;20029;-85
2023/12/02 03:12:24;;;;;;;49.28;29.70;;;-0.30;99.90;;;;;;5023686;28;20048;-85
2023/12/02 03:14:51;;;;;;;50.10;30.45;;;-0.50;99.90;;;;;;5014060;28;20127;-85
2023/12/02 03:17:16;;;;;;;57.15;32.20;;;-0.40;99.90;;;;;;5024112;28;20788;-85
2023/12/02 03:19:43;;;;;;;52.67;31.20;;;-0.40;99.90;;;;;;5012220;28;20041;-84
2023/12/02 03:22:08;;;;;;;50.75;31.73;;;-0.50;99.90;;;;;;5014000;28;20043;-86
2023/12/02 03:24:35;;;;;;;50.28;30.50;;;-0.40;99.90;;;;;;5010984;28;20045;-85
2023/12/02 03:27:04;;;;;;;52.67;30.42;;;-0.50;99.90;;;;;;5023924;28;20048;-85
2023/12/02 03:29:30;;;;;;;52.80;31.50;;;-0.60;99.90;;;;;;5006950;28;20641;-85
2023/12/02 03:31:56;;;;;;;50.15;30.65;;;-0.60;99.90;;;;;;5005106;28;20058;-85
2023/12/02 03:34:22;;;;;;;52.83;30.17;;;-0.40;99.90;;;;;;5023840;28;20072;-85
2023/12/02 03:36:47;;;;;;;49.92;29.67;;;-0.60;99.90;;;;;;5021226;28;20041;-85
2023/12/02 03:39:13;;;;;;;52.53;31.40;;;-0.60;99.90;;;;;;5055647;28;20052;-85
2023/12/02 03:41:42;;;;;;;53.58;31.10;;;-0.60;99.90;;;;;;5022692;28;20413;-85
2023/12/02 03:44:09;;;;;;;57.55;32.60;;;-0.60;99.90;;;;;;5021234;28;20064;-85
2023/12/02 03:46:36;;;;;;;50.58;30.33;;;-0.40;99.90;;;;;;5001992;28;20041;-84
2023/12/02 03:49:03;;;;;;;56.00;31.27;;;-0.40;99.90;;;;;;5005733;28;20033;-85
2023/12/02 03:51:29;;;;;;;52.97;31.95;;;-0.50;99.90;;;;;;5024952;28;20186;-85
2023/12/02 03:53:55;;;;;;;52.30;31.25;;;-0.50;99.90;;;;;;5022999;28;20199;-85
2023/12/02 03:56:23;;;;;;;52.58;30.67;;;-0.40;99.90;;;;;;5038249;28;20346;-85
2023/12/02 03:58:50;;;;;;;54.42;31.17;;;-0.60;99.90;;;;;;5005266;28;20119;-85
2023/12/02 04:01:17;;;;;;;52.17;30.52;;;-0.60;99.90;;;;;;5004504;28;20045;-84
2023/12/02 04:03:44;;;;;;;52.17;30.02;;;-0.50;99.90;;;;;;5008374;28;20107;-85
2023/12/02 04:06:10;;;;;;;49.22;30.63;;;-0.60;99.90;;;;;;5040910;28;20041;-85
2023/12/02 04:08:35;;;;;;;50.67;30.55;;;-0.50;99.90;;;;;;5025108;28;20503;-85
2023/12/02 04:11:02;;;;;;;49.42;30.15;;;-0.50;99.90;;;;;;5040410;28;20037;-84
2023/12/02 04:13:28;;;;;;;53.28;31.98;;;-0.40;99.90;;;;;;5024335;28;20041;-85
2023/12/02 04:15:54;;;;;;;47.58;30.08;;;-0.70;99.90;;;;;;5003022;28;20140;-85
2023/12/02 04:18:20;;;;;;;50.97;30.45;;;-0.70;99.90;;;;;;5039987;28;20512;-85
2023/12/02 04:20:46;;;;;;;51.53;31.73;;;-0.80;99.90;;;;;;5018953;28;20037;-86
2023/12/02 04:23:11;;;;;;;53.22;30.95;;;-0.70;99.90;;;;;;5013975;28;20047;-85
2023/12/02 04:25:38;;;;;;;51.47;31.15;;;-0.50;99.90;;;;;;5004703;28;20045;-85
2023/12/02 04:28:04;;;;;;;47.40;30.02;;;-0.60;99.90;;;;;;5007148;28;20432;-85
2023/12/02 04:30:29;;;;;;;50.08;29.73;;;-0.70;99.90;;;;;;5004697;28;20041;-85
2023/12/02 04:32:55;;;;;;;48.95;29.75;;;-0.50;99.90;;;;;;5005809;28;20104;-85
2023/12/02 04:35:21;;;;;;;48.35;29.80;;;-0.60;99.90;;;;;;5003324;28;20064;-85
2023/12/02 04:37:47;;;;;;;50.33;29.73;;;-0.50;99.90;;;;;;5011711;28;20040;-85
2023/12/02 04:40:13;;;;;;;48.17;29.08;;;-0.60;99.90;;;;;;5011142;28;20041;-85
2023/12/02 04:42:40;;;;;;;48.47;29.55;;;-0.60;99.90;;;;;;5056692;28;20064;-85
2023/12/02 04:45:07;;;;;;;47.22;29.45;;;-0.60;99.90;;;;;;5025214;28;20045;-85
2023/12/02 04:47:34;;;;;;;46.60;29.02;;;-0.80;99.90;;;;;;5015459;28;20057;-85
2023/12/02 04:50:00;;;;;;;49.53;29.38;;;-0.80;99.90;;;;;;5004339;28;20032;-85
2023/12/02 04:52:26;;;;;;;45.60;28.73;;;-0.60;99.90;;;;;;5016076;28;20512;-85
2023/12/02 04:54:51;;;;;;;47.42;29.05;;;-0.90;99.90;;;;;;5026233;28;20037;-85
2023/12/02 04:57:17;;;;;;;49.42;29.50;;;-0.70;99.90;;;;;;5042324;28;20320;-85
2023/12/02 04:59:43;;;;;;;47.67;29.02;;;-0.70;99.90;;;;;;5027520;28;20062;-85
2023/12/02 05:02:09;;;;;;;49.35;29.50;;;-0.70;99.90;;;;;;5011417;28;20046;-85
2023/12/02 05:04:34;;;;;;;45.40;28.35;;;-0.70;99.90;;;;;;5010502;28;20037;-85
2023/12/02 05:07:00;;;;;;;46.17;29.38;;;-0.70;99.90;;;;;;5018078;28;20044;-84
2023/12/02 05:09:26;;;;;;;46.55;29.08;;;-0.90;99.90;;;;;;5009581;28;20610;-85
2023/12/02 05:11:51;;;;;;;47.28;29.13;;;-1.00;99.90;;;;;;5023276;28;20162;-85
2023/12/02 05:14:17;;;;;;;45.78;28.40;;;-0.70;99.90;;;;;;5007866;28;20546;-87
2023/12/02 05:16:43;;;;;;;43.92;27.75;;;-0.90;99.90;;;;;;5013179;28;20275;-85
2023/12/02 05:19:10;;;;;;;47.05;29.10;;;-0.90;99.90;;;;;;5043082;28;20048;-84
2023/12/02 05:21:36;;;;;;;44.47;27.33;;;-1.00;99.90;;;;;;5012197;28;20363;-85
2023/12/02 05:24:02;;;;;;;47.33;28.98;;;-0.70;99.90;;;;;;5044160;28;20176;-85
2023/12/02 05:26:28;;;;;;;46.67;29.42;;;-0.90;99.90;;;;;;5013398;28;20155;-85
2023/12/02 05:28:54;;;;;;;47.50;28.30;;;-1.00;99.90;;;;;;5005884;28;20547;-85
2023/12/02 05:31:19;;;;;;;47.83;28.55;;;-0.80;99.90;;;;;;5009652;28;20095;-85
2023/12/02 05:33:46;;;;;;;47.00;27.70;;;-0.80;99.90;;;;;;5026650;28;20424;-85
2023/12/02 05:36:12;;;;;;;46.22;28.50;;;-1.00;99.90;;;;;;5024553;28;20272;-85
2023/12/02 05:38:38;;;;;;;45.25;27.83;;;-0.80;99.90;;;;;;5024559;28;20156;-85
2023/12/02 05:41:04;;;;;;;49.05;28.48;;;-0.80;99.90;;;;;;5025266;28;20045;-84
2023/12/02 05:43:31;;;;;;;43.40;27.30;;;-1.00;99.90;;;;;;5019905;28;20067;-84
2023/12/02 05:46:00;;;;;;;46.72;28.02;;;-0.90;99.90;;;;;;5042118;28;20124;-85
2023/12/02 05:48:25;;;;;;;44.65;26.88;;;-1.00;99.90;;;;;;5028005;28;20123;-85
2023/12/02 05:50:51;;;;;;;47.65;29.02;;;-0.90;99.90;;;;;;5027103;28;20120;-85
2023/12/02 05:53:17;;;;;;;47.53;28.88;;;-1.00;99.90;;;;;;5009892;28;20040;-84
2023/12/02 05:55:43;;;;;;;45.97;28.17;;;-1.00;99.90;;;;;;5023824;28;20538;-84
2023/12/02 05:58:08;;;;;;;46.35;27.92;;;-0.90;99.90;;;;;;5001672;28;20284;-85
2023/12/02 06:00:37;;;;;;;45.28;27.30;;;-1.10;99.90;;;;;;5022188;28;20126;-85
2023/12/02 06:03:03;;;;;;;46.60;28.27;;;-1.20;99.90;;;;;;5009405;28;20063;-85
2023/12/02 06:05:29;;;;;;;47.33;29.42;;;-1.20;99.90;;;;;;5011085;28;20037;-84
2023/12/02 06:07:55;;;;;;;48.33;28.10;;;-1.00;99.90;;;;;;5009228;28;20044;-84
2023/12/02 06:10:21;;;;;;;50.95;28.73;;;-1.20;99.90;;;;;;5001807;28;20028;-85
2023/12/02 06:12:47;;;;;;;48.15;29.02;;;-1.20;99.90;;;;;;5008387;28;20078;-85
2023/12/02 06:15:13;;;;;;;45.42;27.95;;;-0.90;99.90;;;;;;5000458;28;20045;-85
2023/12/02 06:17:39;;;;;;;47.55;27.83;;;-1.10;99.90;;;;;;5025959;28;20052;-85
2023/12/02 06:20:06;;;;;;;49.00;29.45;;;-1.00;99.90;;;;;;5003913;28;20435;-85
2023/12/02 06:22:33;;;;;;;45.47;27.92;;;-1.10;99.90;;;;;;5026331;28;20101;-85
2023/12/02 06:24:59;;;;;;;47.28;28.73;;;-1.20;99.90;;;;;;5006681;28;20037;-85
2023/12/02 06:27:24;;;;;;;49.67;29.27;;;-1.00;99.90;;;;;;5014965;28;20036;-85
2023/12/02 06:29:50;;;;;;;46.50;28.48;;;-1.00;99.90;;;;;;5007365;28;20094;-84
2023/12/02 06:32:18;;;;;;;51.92;29.75;;;-1.00;99.90;;;;;;5009224;28;20208;-85
2023/12/02 06:34:44;;;;;;;47.40;29.30;;;-1.20;99.90;;;;;;5008281;28;20045;-85
2023/12/02 06:37:10;;;;;;;47.13;28.95;;;-1.20;99.90;;;;;;5012274;28;20155;-84
2023/12/02 06:39:35;;;;;;;52.78;30.13;;;-1.20;99.90;;;;;;4999407;28;20076;-85
2023/12/02 06:42:01;;;;;;;46.45;28.98;;;-1.00;99.90;;;;;;5007938;28;20511;-85
2023/12/02 06:44:27;;;;;;;53.42;30.50;;;-1.20;99.90;;;;;;4992366;28;20051;-85
2023/12/02 06:46:53;;;;;;;50.45;28.45;;;-1.20;99.90;;;;;;5008431;28;20054;-85
2023/12/02 06:49:18;;;;;;;52.58;29.92;;;-1.10;99.90;;;;;;5002364;28;20086;-85
2023/12/02 06:51:44;;;;;;;52.15;29.73;;;-1.20;99.90;;;;;;5008246;28;20033;-85
2023/12/02 06:54:10;;;;;;;50.47;30.10;;;-0.90;99.90;;;;;;5009494;28;20236;-85
2023/12/02 06:56:36;;;;;;;52.13;29.83;;;-1.00;99.90;;;;;;5007117;28;20075;-85
2023/12/02 06:59:02;;;;;;;48.95;28.80;;;-1.00;99.90;;;;;;5000141;28;20037;-85
2023/12/02 07:01:32;;;;;;;53.08;31.08;;;-1.10;99.90;;;;;;5024855;28;20056;-85
2023/12/02 07:04:00;;;;;;;51.55;30.25;;;-1.10;99.90;;;;;;5024748;28;20533;-85
2023/12/02 07:06:27;;;;;;;52.83;31.05;;;-0.90;99.90;;;;;;5001165;28;20037;-85
2023/12/02 07:08:54;;;;;;;51.88;30.48;;;-1.10;99.90;;;;;;5024488;28;20489;-85
2023/12/02 07:11:21;;;;;;;55.38;31.20;;;-1.10;99.90;;;;;;5024439;28;20263;-84
2023/12/02 07:13:47;;;;;;;49.67;29.15;;;-1.00;99.90;;;;;;5000388;28;20433;-85
2023/12/02 07:16:13;;;;;;;55.58;29.98;;;-1.10;99.90;;;;;;5033761;28;20309;-85
2023/12/02 07:18:40;;;;;;;55.58;31.33;;;-0.80;99.90;;;;;;5040177;28;20381;-84
2023/12/02 07:21:07;;;;;;;57.22;30.73;;;-1.10;99.90;;;;;;5003647;28;20041;-85
2023/12/02 07:23:33;;;;;;;53.15;30.52;;;-1.10;99.90;;;;;;4997062;28;20290;-85
2023/12/02 07:25:59;;;;;;;54.47;31.23;;;-1.00;99.90;;;;;;5019071;28;20083;-84
2023/12/02 07:28:25;;;;;;;58.35;31.67;;;-1.00;99.90;;;;;;5004372;28;20428;-83
2023/12/02 07:30:51;;;;;;;56.50;30.52;;;-0.90;99.90;;;;;;5014877;28;20083;-85
2023/12/02 07:33:21;;;;;;;53.95;30.55;;;-1.10;99.90;;;;;;5024231;28;20524;-85
2023/12/02 07:35:49;;;;;;;55.15;31.60;;;-0.80;99.90;;;;;;5030127;28;20044;-84
2023/12/02 07:38:15;;;;;;;60.35;32.22;;;-0.90;99.90;;;;;;5044423;28;20029;-85
2023/12/02 07:40:41;;;;;;;55.40;31.33;;;-0.80;99.90;;;;;;5024019;28;20045;-85
2023/12/02 07:43:07;;;;;;;56.25;31.67;;;-1.00;99.90;;;;;;5014839;28;20413;-85
2023/12/02 07:45:32;;;;;;;56.72;31.90;;;-0.70;99.90;;;;;;5011379;28;20468;-85
2023/12/02 07:47:58;;;;;;;56.53;32.05;;;-0.90;99.90;;;;;;5023875;28;20037;-85
2023/12/02 07:50:24;;;;;;;56.83;30.63;;;-0.70;99.90;;;;;;5039442;28;20124;-85
2023/12/02 07:52:50;;;;;;;52.35;30.30;;;-0.70;99.90;;;;;;5041531;28;20399;-85
2023/12/02 07:55:15;;;;;;;55.25;30.65;;;-0.70;99.90;;;;;;5038326;28;20037;-85
2023/12/02 07:57:41;;;;;;;56.92;31.77;;;-0.90;99.90;;;;;;5040415;28;20454;-85
2023/12/02 08:00:07;;;;;;;56.67;31.92;;;-0.70;99.90;;;;;;5006051;28;20055;-84
2023/12/02 08:02:34;;;;;;;57.72;32.72;;;-0.90;99.90;;;;;;5025594;28;20094;-85
2023/12/02 08:05:00;;;;;;;54.17;30.83;;;-0.80;99.90;;;;;;5007881;28;20239;-85
2023/12/02 08:07:26;;;;;;;54.63;30.23;;;-0.90;99.90;;;;;;5003921;28;20204;-85
2023/12/02 08:09:51;;;;;;;54.92;30.70;;;-0.70;99.90;;;;;;5005882;28;20041;-85
2023/12/02 08:12:17;;;;;;;57.00;31.85;;;-0.60;99.90;;;;;;5041480;28;20040;-85
2023/12/02 08:14:43;;;;;;;58.47;32.95;;;-0.60;99.90;;;;;;5005523;28;20134;-84
2023/12/02 08:17:12;;;;;;;56.25;31.02;;;-0.80;99.90;;;;;;5024075;28;20098;-84
2023/12/02 08:19:37;;;;;;;58.13;32.67;;;-0.60;99.90;;;;;;4999117;28;20104;-84
2023/12/02 08:22:03;;;;;;;56.70;32.15;;;-0.70;99.90;;;;;;5044312;28;20041;-85
2023/12/02 08:24:32;;;;;;;56.42;30.92;;;-0.60;99.90;;;;;;5026230;28;20223;-85
2023/12/02 08:26:58;;;;;;;55.92;31.40;;;-0.70;99.90;;;;;;5010737;28;20083;-85
2023/12/02 08:29:24;;;;;;;54.92;32.00;;;-0.50;99.90;;;;;;5023460;28;20046;-86
2023/12/02 08:31:51;;;;;;;59.47;32.53;;;-0.60;99.90;;;;;;5027091;28;20048;-85
2023/12/02 08:34:16;;;;;;;56.28;31.55;;;-0.50;99.90;;;;;;5027883;28;20037;-86
2023/12/02 08:36:43;;;;;;;59.20;32.53;;;-0.40;99.90;;;;;;5044551;28;20044;-85
2023/12/02 08:39:09;;;;;;;55.33;31.63;;;-0.40;99.90;;;;;;5012500;28;20044;-85
2023/12/02 08:41:36;;;;;;;56.55;31.48;;;-0.30;99.90;;;;;;5027242;28;20132;-84
2023/12/02 08:44:02;;;;;;;63.25;33.00;;;-0.50;99.90;;;;;;5029540;28;20113;-85
2023/12/02 08:46:28;;;;;;;57.50;31.85;;;-0.40;99.90;;;;;;5011147;28;20434;-85
2023/12/02 08:48:53;;;;;;;59.55;32.67;;;-0.20;99.90;;;;;;5005490;28;20090;-84
2023/12/02 08:51:19;;;;;;;57.85;31.35;;;-0.10;99.90;;;;;;5014343;28;20049;-85
2023/12/02 08:53:46;;;;;;;56.65;31.17;;;-0.40;99.90;;;;;;5025985;28;20136;-85
2023/12/02 08:56:12;;;;;;;58.72;32.10;;;-0.20;99.90;;;;;;5003787;28;20045;-85
2023/12/02 08:58:38;;;;;;;57.75;33.13;;;-0.30;99.90;;;;;;5025964;28;20033;-85
2023/12/02 09:01:04;;;;;;;59.28;32.63;;;-0.20;99.90;;;;;;5025316;28;20503;-85
2023/12/02 09:03:30;;;;;;;52.05;30.65;;;-0.20;99.90;;;;;;5010126;28;20543;-85
2023/12/02 09:05:56;;;;;;;53.88;32.25;;;0.00;99.90;;;;;;5025890;28;20041;-85
2023/12/02 09:08:22;;;;;;;53.63;29.25;;;0.00;99.90;;;;;;5024656;28;20072;-85
2023/12/02 09:10:48;;;;;;;56.90;32.22;;;0.10;99.90;;;;;;5026785;28;20041;-85
2023/12/02 09:13:43;;;;;;;53.47;30.65;;;0.00;99.90;;;;;;5026204;28;20360;-86
2023/12/02 09:16:11;;;;;;;58.38;31.95;;;0.10;99.90;;;;;;5013196;28;20186;-84
2023/12/02 09:18:38;;;;;;;54.50;31.73;;;0.00;99.90;;;;;;5025218;28;20051;-85
2023/12/02 09:21:19;;;;;;;49.72;29.55;;;0.20;99.90;;;;;;5024244;28;20068;-85
2023/12/02 09:23:46;;;;;;;52.92;31.15;;;0.30;99.90;;;;;;5025110;28;20087;-85
2023/12/02 09:26:31;;;;;;;52.92;30.08;;;0.30;99.90;;;;;;5056605;28;20065;-85
2023/12/02 09:28:57;;;;;;;54.30;28.98;;;0.30;99.90;;;;;;5022538;28;20072;-85
2023/12/02 09:31:24;;;;;;;53.67;32.15;;;0.40;99.90;;;;;;5007346;28;20033;-85
2023/12/02 09:34:04;;;;;;;54.20;30.23;;;0.50;99.90;;;;;;5009388;28;20498;-85
2023/12/02 09:36:36;;;;;;;52.00;29.40;;;0.70;99.90;;;;;;5026402;28;20396;-85
2023/12/02 09:39:17;;;;;;;53.55;29.77;;;0.60;99.90;;;;;;5000326;28;20507;-85
2023/12/02 09:41:58;;;;;;;55.35;29.58;;;0.60;99.90;;;;;;5023341;28;20143;-83
2023/12/02 09:44:31;;;;;;;52.15;29.48;;;0.90;99.90;;;;;;5004087;28;20533;-84
2023/12/02 09:47:09;;;;;;;49.78;29.88;;;0.90;99.90;;;;;;5025122;28;20041;-84
2023/12/02 09:49:44;;;;;;;47.65;28.60;;;0.90;99.90;;;;;;5003276;28;20064;-85
2023/12/02 09:52:25;;;;;;;52.67;30.10;;;1.00;99.90;;;;;;5024856;28;20052;-85
2023/12/02 09:55:11;;;;;;;54.53;30.48;;;1.00;99.90;;;;;;5022504;28;20052;-85
2023/12/02 09:57:47;;;;;;;52.22;29.08;;;1.40;99.90;;;;;;5010000;28;20029;-86
2023/12/02 10:00:42;;;;;;;54.20;28.98;;;1.20;99.90;;;;;;5015752;28;20032;-86
2023/12/02 10:03:32;;;;;;;;;;;1.20;99.90;;;;;;5042751;28;20672;-85
2023/12/02 10:06:18;;;;;;;49.95;29.52;;;1.40;99.90;;;;;;5032055;28;19925;-85
2023/12/02 10:09:28;;;;;;;48.58;28.77;;;1.20;99.90;;;;;;5029250;28;20033;-85
2023/12/02 10:12:24;;;;;;;52.10;29.63;;;1.40;99.90;;;;;;4959828;28;20434;-86
2023/12/02 10:15:00;;;;;;;51.25;29.30;;;1.40;99.90;;;;;;4957981;28;20078;-86
2023/12/02 10:17:30;;;;;;;46.70;28.23;;;1.60;99.90;;;;;;5011438;28;20080;-86
2023/12/02 10:20:09;;;;;;;46.42;27.20;;;1.70;99.90;;;;;;5025688;28;20114;-87
2023/12/02 10:22:43;;;;;;;45.40;26.48;;;1.60;99.90;;;;;;5010946;28;20032;-86
2023/12/02 10:25:32;;;;;;;45.10;27.10;;;1.80;99.90;;;;;;5008843;28;20829;-86
2023/12/02 10:28:22;;;;;;;44.53;26.65;;;1.90;99.90;;;;;;5010294;28;20327;-87
2023/12/02 10:30:50;;;;;;;43.25;25.95;;;2.00;99.90;;;;;;5039886;28;20127;-88
2023/12/02 10:33:41;;;;;;;42.05;25.13;;;1.90;99.90;;;;;;5004292;28;20083;-88
2023/12/02 10:36:10;;;;;;;44.70;26.83;;;1.90;99.90;;;;;;5024647;28;20499;-89
2023/12/02 10:38:56;;;;;;;43.05;25.85;;;2.00;99.90;;;;;;5026854;28;20046;-88
2023/12/02 10:41:51;;;;;;;46.55;26.77;;;2.10;99.90;;;;;;5001315;28;20075;-87
2023/12/02 10:44:20;;;;;;;41.55;24.58;;;2.00;99.90;;;;;;5006617;28;20041;-88
2023/12/02 10:46:48;;;;;;;41.10;25.27;;;2.10;99.90;;;;;;5017910;28;20042;-88
2023/12/02 10:49:14;;;;;;;42.55;26.35;;;2.00;99.90;;;;;;5024845;28;20506;-88
2023/12/02 10:51:42;;;;;;;41.28;24.38;;;2.00;99.90;;;;;;5041800;28;20055;-88
2023/12/02 10:54:15;;;;;;;41.05;25.25;;;2.00;99.90;;;;;;4998380;28;20040;-88
2023/12/02 10:56:45;;;;;;;42.40;26.27;;;1.90;99.90;;;;;;5001981;28;20068;-87
2023/12/02 10:59:11;;;;;;;40.95;24.92;;;2.00;99.90;;;;;;4989121;28;20051;-88
2023/12/02 11:01:44;;;;;;;42.00;25.92;;;2.20;99.90;;;;;;5023229;28;20412;-88
2023/12/02 11:04:19;;;;;;;40.47;24.60;;;2.30;99.90;;;;;;5023316;28;20131;-88
2023/12/02 11:07:01;;;;;;;39.58;23.48;;;2.30;99.90;;;;;;5010968;28;20044;-88
2023/12/02 11:09:55;;;;;;;39.45;24.25;;;2.40;99.90;;;;;;5022414;28;20037;-88
2023/12/02 11:12:43;;;;;;;39.22;24.35;;;2.70;99.90;;;;;;5032160;28;20048;-88
2023/12/02 11:15:12;;;;;;;38.67;23.67;;;2.60;99.90;;;;;;5034732;28;20128;-89
2023/12/02 11:17:40;;;;;;;36.00;21.60;;;2.70;99.90;;;;;;5006788;28;20073;-88
2023/12/02 11:20:22;;;;;;;34.70;22.67;;;2.60;99.90;;;;;;5000103;28;20110;-88
2023/12/02 11:23:06;;;;;;;34.78;21.70;;;2.80;99.90;;;;;;5018061;28;20508;-87
2023/12/02 11:26:11;;;;;;;35.83;22.10;;;2.80;99.90;;;;;;5020957;28;20048;-87
2023/12/02 11:29:16;;;;;;;35.55;22.00;;;2.70;99.90;;;;;;5057392;28;20041;-88
2023/12/02 11:31:58;;;;;;;34.00;21.15;;;2.70;99.90;;;;;;5009259;28;20083;-88
2023/12/02 11:34:36;;;;;;;41.20;21.10;;;2.80;99.90;;;;;;5023771;28;20283;-87
2023/12/02 11:37:19;;;;;;;33.38;20.10;;;2.80;99.90;;;;;;5020745;28;20048;-88
2023/12/02 11:39:57;;;;;;;34.10;20.42;;;2.70;99.90;;;;;;5006555;28;20041;-88
2023/12/02 11:42:27;;;;;;;30.27;19.00;;;2.80;99.90;;;;;;5010859;28;20097;-89
2023/12/02 11:45:12;;;;;;;30.85;19.70;;;2.80;99.90;;;;;;5009384;28;20072;-88
2023/12/02 11:47:44;;;;;;;29.87;19.83;;;2.80;99.90;;;;;;5001811;28;20444;-89
2023/12/02 11:50:28;;;;;;;28.23;18.90;;;2.70;99.90;;;;;;5006184;28;20045;-89
2023/12/02 11:53:09;;;;;;;31.38;20.30;;;2.80;99.90;;;;;;5032790;28;20160;-88
2023/12/02 11:55:42;;;;;;;30.10;19.08;;;2.80;99.90;;;;;;5009092;28;20499;-88
2023/12/02 11:58:18;;;;;;;31.70;19.48;;;2.80;99.90;;;;;;5028791;28;20045;-89
2023/12/02 12:01:14;;;;;;;28.90;18.58;;;2.80;99.90;;;;;;5027163;28;20037;-89
2023/12/02 12:03:59;;;;;;;29.60;19.02;;;2.70;99.90;;;;;;5029912;28;20452;-88
2023/12/02 12:06:46;;;;;;;31.05;18.67;;;2.80;99.90;;;;;;5005680;28;20610;-88
2023/12/02 12:09:26;;;;;;;30.50;19.52;;;2.80;99.90;;;;;;4998277;28;20071;-89
2023/12/02 12:11:56;;;;;;;27.40;17.70;;;2.80;99.90;;;;;;5007825;28;20320;-87
2023/12/02 12:14:23;;;;;;;29.85;17.88;;;2.80;99.90;;;;;;5028320;28;20043;-88
2023/12/02 12:16:50;;;;;;;29.25;18.17;;;2.70;99.90;;;;;;5013459;28;20470;-88
2023/12/02 12:19:15;;;;;;;29.83;18.40;;;2.90;99.90;;;;;;5027659;28;20064;-88
2023/12/02 12:21:42;;;;;;;29.65;18.60;;;2.80;99.90;;;;;;5018349;28;20072;-88
2023/12/02 12:24:08;;;;;;;33.97;19.25;;;2.80;99.90;;;;;;5042633;28;20041;-87
2023/12/02 12:26:34;;;;;;;30.10;18.83;;;3.00;99.90;;;;;;5011579;28;20037;-88
2023/12/02 12:29:01;;;;;;;30.13;19.38;;;2.90;99.90;;;;;;5014461;28;20428;-88
2023/12/02 12:31:30;;;;;;;30.05;18.38;;;2.80;99.90;;;;;;5008751;28;20493;-88
2023/12/02 12:33:57;;;;;;;30.10;18.88;;;2.90;99.90;;;;;;5009250;28;20095;-89
2023/12/02 12:36:30;;;;;;;26.88;17.85;;;2.90;99.90;;;;;;5028188;28;20080;-89
2023/12/02 12:38:59;;;;;;;29.60;17.70;;;2.80;99.90;;;;;;5008995;28;20060;-88
2023/12/02 12:41:29;;;;;;;27.88;17.75;;;2.80;99.90;;;;;;5014052;28;20048;-88